createdAt,value
2023-04-30T00:01:26.573Z,10.30
2023-04-30T00:03:53.551Z,10.30
2023-04-30T00:06:20.431Z,10.20
2023-04-30T00:08:47.167Z,10.10
2023-04-30T00:11:13.960Z,10.10
2023-04-30T00:13:42.889Z,10.00
2023-04-30T00:16:09.979Z,9.90
2023-04-30T00:18:37.913Z,9.80
2023-04-30T00:21:04.787Z,9.80
2023-04-30T00:23:31.598Z,9.70
2023-04-30T00:25:58.320Z,9.60
2023-04-30T00:28:25.079Z,9.50
2023-04-30T00:30:51.892Z,9.50
2023-04-30T00:33:18.738Z,9.60
2023-04-30T00:35:45.583Z,9.60
2023-04-30T00:38:12.360Z,9.60
2023-04-30T00:40:41.469Z,9.50
2023-04-30T00:43:08.222Z,9.50
2023-04-30T00:45:35.059Z,9.40
2023-04-30T00:48:02.004Z,9.30
2023-04-30T00:50:29.354Z,9.30
2023-04-30T00:52:56.153Z,9.20
2023-04-30T00:55:22.997Z,9.20
2023-04-30T00:57:50.184Z,9.00
2023-04-30T01:00:17.491Z,9.10
2023-04-30T01:02:44.406Z,9.10
2023-04-30T01:05:11.754Z,9.10
2023-04-30T01:07:41.516Z,9.00
2023-04-30T01:10:09.008Z,9.00
2023-04-30T01:12:39.944Z,8.90
2023-04-30T01:15:23.134Z,8.90
2023-04-30T01:18:03.431Z,8.90
2023-04-30T01:20:31.141Z,8.90
2023-04-30T01:23:29.482Z,8.80
2023-04-30T01:26:15.468Z,8.80
2023-04-30T01:28:43.935Z,8.70
2023-04-30T01:31:14.782Z,8.70
2023-04-30T01:33:41.599Z,8.70
2023-04-30T01:36:49.647Z,8.60
2023-04-30T01:39:42.803Z,8.60
2023-04-30T01:42:22.594Z,8.60
2023-04-30T01:45:03.592Z,8.50
2023-04-30T01:47:33.440Z,8.50
2023-04-30T01:50:16.501Z,8.40
2023-04-30T01:52:54.052Z,8.40
2023-04-30T01:55:38.294Z,8.40
2023-04-30T01:58:11.100Z,8.30
2023-04-30T02:00:37.951Z,8.30
2023-04-30T02:03:04.970Z,8.20
2023-04-30T02:05:31.825Z,8.20
2023-04-30T02:07:58.863Z,8.20
2023-04-30T02:10:26.959Z,8.20
2023-04-30T02:12:53.790Z,8.10
2023-04-30T02:15:20.616Z,8.10
2023-04-30T02:17:47.483Z,8.10
2023-04-30T02:20:14.356Z,8.00
2023-04-30T02:22:41.227Z,7.90
2023-04-30T02:25:08.422Z,8.00
2023-04-30T02:27:35.371Z,7.90
2023-04-30T02:30:02.658Z,7.90
2023-04-30T02:32:29.627Z,7.90
2023-04-30T02:34:56.755Z,7.80
2023-04-30T02:37:23.649Z,7.80
2023-04-30T02:39:51.477Z,7.70
2023-04-30T02:42:18.270Z,7.70
2023-04-30T02:44:45.073Z,7.70
2023-04-30T02:47:11.819Z,7.60
2023-04-30T02:49:38.820Z,7.60
2023-04-30T02:52:06.094Z,7.60
2023-04-30T02:54:32.844Z,7.50
2023-04-30T02:56:59.571Z,7.50
2023-04-30T02:59:27.258Z,7.50
2023-04-30T03:01:53.986Z,7.50
2023-04-30T03:04:20.697Z,7.40
2023-04-30T03:06:47.476Z,7.40
2023-04-30T03:09:15.224Z,7.40
2023-04-30T03:11:42.043Z,7.30
2023-04-30T03:14:08.857Z,7.30
2023-04-30T03:16:36.700Z,7.30
2023-04-30T03:19:03.600Z,7.30
2023-04-30T03:21:31.119Z,7.20
2023-04-30T03:23:57.882Z,7.20
2023-04-30T03:26:24.683Z,7.20
2023-04-30T03:28:51.436Z,7.10
2023-04-30T03:31:18.259Z,7.10
2023-04-30T03:33:45.106Z,7.10
2023-04-30T03:36:12.757Z,7.10
2023-04-30T03:38:39.656Z,7.00
2023-04-30T03:41:06.454Z,7.00
2023-04-30T03:43:33.502Z,7.00
2023-04-30T03:46:00.470Z,7.00
2023-04-30T03:48:27.522Z,6.90
2023-04-30T03:50:54.286Z,6.90
2023-04-30T03:53:21.155Z,6.90
2023-04-30T03:55:50.004Z,6.80
2023-04-30T03:58:16.798Z,6.80
2023-04-30T04:00:45.734Z,6.80
2023-04-30T04:03:12.634Z,6.80
2023-04-30T04:05:39.372Z,6.80
2023-04-30T04:08:06.811Z,6.70
2023-04-30T04:10:34.677Z,6.70
2023-04-30T04:13:01.563Z,6.70
2023-04-30T04:15:28.346Z,6.60
2023-04-30T04:17:55.103Z,6.60
2023-04-30T04:20:21.875Z,6.60
2023-04-30T04:22:49.035Z,6.60
2023-04-30T04:25:16.008Z,6.50
2023-04-30T04:27:42.860Z,6.50
2023-04-30T04:30:10.142Z,6.50
2023-04-30T04:32:49.527Z,6.50
2023-04-30T04:35:18.460Z,6.40
2023-04-30T04:37:45.581Z,6.40
2023-04-30T04:40:12.532Z,6.40
2023-04-30T04:42:39.522Z,6.40
2023-04-30T04:45:07.975Z,6.40
2023-04-30T04:47:34.786Z,6.30
2023-04-30T04:50:01.613Z,6.40
2023-04-30T04:52:28.438Z,6.30
2023-04-30T04:54:55.189Z,6.30
2023-04-30T04:57:21.940Z,6.30
2023-04-30T04:59:48.704Z,6.30
2023-04-30T05:02:15.504Z,6.30
2023-04-30T05:04:42.234Z,6.30
2023-04-30T05:07:08.961Z,6.30
2023-04-30T05:09:35.698Z,6.30
2023-04-30T05:12:02.468Z,6.30
2023-04-30T05:14:29.271Z,6.30
2023-04-30T05:16:55.986Z,6.40
2023-04-30T05:19:22.722Z,6.30
2023-04-30T05:21:49.460Z,6.40
2023-04-30T05:24:16.227Z,6.40
2023-04-30T05:26:42.968Z,6.50
2023-04-30T05:29:11.530Z,6.50
2023-04-30T05:31:38.348Z,6.50
2023-04-30T05:34:05.232Z,6.50
2023-04-30T05:36:32.272Z,6.50
2023-04-30T05:38:59.246Z,6.60
2023-04-30T05:41:26.296Z,6.60
2023-04-30T05:43:53.081Z,6.60
2023-04-30T05:46:19.980Z,6.60
2023-04-30T05:48:46.820Z,6.70
2023-04-30T05:51:13.698Z,6.70
2023-04-30T05:53:40.439Z,6.80
2023-04-30T05:56:08.803Z,6.80
2023-04-30T05:58:35.651Z,6.80
2023-04-30T06:01:02.570Z,6.90
2023-04-30T06:03:29.453Z,7.00
2023-04-30T06:05:56.231Z,7.00
2023-04-30T06:08:23.049Z,7.10
2023-04-30T06:10:50.857Z,7.10
2023-04-30T06:13:17.808Z,7.20
2023-04-30T06:15:44.822Z,7.30
2023-04-30T06:18:14.179Z,7.30
2023-04-30T06:20:41.013Z,7.40
2023-04-30T06:23:08.898Z,7.50
2023-04-30T06:25:36.003Z,7.50
2023-04-30T06:28:02.790Z,7.60
2023-04-30T06:30:32.040Z,7.60
2023-04-30T06:32:58.819Z,7.70
2023-04-30T06:35:25.581Z,7.80
2023-04-30T06:37:52.434Z,7.80
2023-04-30T06:40:20.417Z,7.80
2023-04-30T06:42:47.744Z,8.00
2023-04-30T06:45:15.405Z,8.00
2023-04-30T06:47:42.967Z,8.00
2023-04-30T06:50:10.195Z,8.20
2023-04-30T06:52:37.220Z,8.20
2023-04-30T06:55:04.150Z,8.20
2023-04-30T06:57:31.872Z,8.30
2023-04-30T06:59:58.672Z,8.40
2023-04-30T07:02:25.548Z,8.50
2023-04-30T07:04:52.616Z,8.60
2023-04-30T07:07:19.415Z,8.70
2023-04-30T07:09:46.191Z,8.70
2023-04-30T07:12:13.717Z,8.70
2023-04-30T07:14:40.613Z,8.80
2023-04-30T07:17:07.381Z,8.80
2023-04-30T07:19:34.229Z,8.90
2023-04-30T07:22:01.102Z,9.00
2023-04-30T07:24:27.960Z,9.00
2023-04-30T07:26:54.726Z,9.20
2023-04-30T07:29:21.584Z,9.20
2023-04-30T07:31:48.375Z,9.20
2023-04-30T07:34:15.165Z,9.30
2023-04-30T07:36:41.953Z,9.30
2023-04-30T07:39:08.751Z,9.40
2023-04-30T07:41:35.577Z,9.50
2023-04-30T07:44:02.458Z,9.50
2023-04-30T07:46:29.293Z,9.50
2023-04-30T07:48:56.065Z,9.60
2023-04-30T07:51:23.040Z,9.60
2023-04-30T07:53:49.830Z,9.70
2023-04-30T07:56:16.590Z,9.70
2023-04-30T07:58:43.675Z,9.80
2023-04-30T08:01:10.601Z,9.80
2023-04-30T08:03:37.477Z,10.00
2023-04-30T08:06:05.967Z,10.20
2023-04-30T08:08:32.802Z,10.40
2023-04-30T08:10:59.636Z,10.60
2023-04-30T08:13:26.409Z,10.80
2023-04-30T08:15:53.168Z,11.00
2023-04-30T08:18:19.984Z,11.30
2023-04-30T08:20:46.719Z,11.50
2023-04-30T08:23:13.719Z,11.80
2023-04-30T08:25:40.700Z,12.10
2023-04-30T08:28:07.452Z,12.30
2023-04-30T08:30:34.238Z,12.40
2023-04-30T08:33:01.054Z,12.70
2023-04-30T08:35:29.770Z,12.80
2023-04-30T08:37:56.554Z,12.90
2023-04-30T08:40:33.842Z,13.10
2023-04-30T08:43:11.638Z,13.20
2023-04-30T08:45:38.472Z,13.40
2023-04-30T08:48:06.847Z,13.50
2023-04-30T08:50:35.036Z,13.70
2023-04-30T08:53:02.910Z,13.90
2023-04-30T08:55:29.932Z,14.00
2023-04-30T08:57:56.665Z,14.10
2023-04-30T09:00:23.420Z,14.40
2023-04-30T09:02:50.403Z,14.40
2023-04-30T09:05:17.223Z,14.50
2023-04-30T09:08:01.122Z,14.60
2023-04-30T09:10:32.499Z,14.80
2023-04-30T09:13:00.308Z,14.80
2023-04-30T09:15:27.498Z,15.00
2023-04-30T09:18:08.188Z,15.20
2023-04-30T09:20:35.481Z,15.20
2023-04-30T09:23:10.188Z,15.10
2023-04-30T09:25:41.744Z,15.10
2023-04-30T09:28:12.835Z,15.20
2023-04-30T09:30:40.853Z,15.20
2023-04-30T09:33:11.396Z,15.20
2023-04-30T09:35:41.656Z,15.30
2023-04-30T09:38:08.775Z,15.50
2023-04-30T09:40:37.042Z,15.60
2023-04-30T09:43:04.146Z,15.70
2023-04-30T09:45:44.768Z,15.90
2023-04-30T09:48:17.639Z,16.00
2023-04-30T09:50:46.191Z,16.10
2023-04-30T09:53:14.556Z,16.10
2023-04-30T09:55:46.225Z,16.10
2023-04-30T09:58:14.253Z,16.10
2023-04-30T10:00:42.155Z,16.10
2023-04-30T10:03:11.030Z,16.10
2023-04-30T10:05:41.164Z,16.10
2023-04-30T10:08:14.104Z,16.20
2023-04-30T10:10:43.442Z,16.20
2023-04-30T10:13:14.544Z,16.30
2023-04-30T10:15:49.704Z,16.40
2023-04-30T10:18:25.331Z,16.50
2023-04-30T10:20:53.975Z,16.60
2023-04-30T10:23:22.141Z,16.70
2023-04-30T10:25:49.353Z,16.70
2023-04-30T10:28:16.226Z,16.70
2023-04-30T10:30:45.849Z,16.70
2023-04-30T10:33:14.844Z,16.80
2023-04-30T10:35:47.671Z,16.80
2023-04-30T10:38:25.170Z,16.80
2023-04-30T10:40:56.164Z,17.00
2023-04-30T10:43:24.689Z,16.90
2023-04-30T10:45:51.605Z,17.00
2023-04-30T10:48:25.489Z,17.10
2023-04-30T10:50:54.866Z,17.20
2023-04-30T10:53:23.042Z,17.30
2023-04-30T10:56:10.068Z,17.30
2023-04-30T10:58:38.906Z,17.30
2023-04-30T11:01:15.538Z,17.50
2023-04-30T11:03:44.056Z,17.50
2023-04-30T11:06:15.070Z,17.50
2023-04-30T11:08:45.838Z,17.60
2023-04-30T11:11:18.345Z,17.70
2023-04-30T11:13:46.432Z,17.90
2023-04-30T11:16:13.591Z,18.00
2023-04-30T11:18:47.145Z,18.20
2023-04-30T11:21:14.072Z,18.30
2023-04-30T11:23:43.269Z,18.40
2023-04-30T11:26:10.484Z,18.40
2023-04-30T11:28:38.175Z,18.60
2023-04-30T11:31:05.478Z,18.60
2023-04-30T11:33:33.556Z,18.80
2023-04-30T11:36:01.753Z,18.80
2023-04-30T11:38:36.165Z,18.80
2023-04-30T11:41:04.156Z,18.90
2023-04-30T11:43:32.544Z,18.90
2023-04-30T11:46:13.829Z,18.90
2023-04-30T11:48:45.193Z,19.20
2023-04-30T11:51:23.980Z,19.40
2023-04-30T11:53:52.033Z,19.60
2023-04-30T11:56:21.482Z,19.70
2023-04-30T11:58:49.432Z,19.70
2023-04-30T12:01:16.787Z,19.80
2023-04-30T12:03:48.625Z,19.80
2023-04-30T12:06:23.453Z,19.90
2023-04-30T12:08:53.144Z,19.90
2023-04-30T12:11:30.451Z,20.00
2023-04-30T12:13:58.375Z,20.20
2023-04-30T12:16:25.832Z,20.30
2023-04-30T12:18:53.151Z,20.50
2023-04-30T12:21:22.747Z,20.50
2023-04-30T12:23:49.805Z,20.70
2023-04-30T12:26:16.695Z,20.90
2023-04-30T12:28:43.456Z,21.00
2023-04-30T12:31:10.288Z,21.10
2023-04-30T12:33:37.242Z,21.20
2023-04-30T12:36:04.122Z,21.30
2023-04-30T12:38:30.957Z,21.40
2023-04-30T12:40:57.883Z,21.30
2023-04-30T12:43:24.732Z,21.60
2023-04-30T12:45:55.813Z,21.70
2023-04-30T12:48:24.633Z,21.80
2023-04-30T12:50:54.411Z,22.00
2023-04-30T12:53:22.009Z,22.10
2023-04-30T12:56:12.146Z,22.10
2023-04-30T12:58:39.490Z,22.20
2023-04-30T13:01:10.368Z,22.50
2023-04-30T13:03:37.364Z,22.70
2023-04-30T13:06:05.150Z,22.80
2023-04-30T13:08:33.892Z,22.90
2023-04-30T13:11:06.734Z,22.90
2023-04-30T13:13:33.541Z,23.00
2023-04-30T13:16:00.517Z,23.00
2023-04-30T13:18:27.307Z,23.20
2023-04-30T13:20:54.045Z,23.20
2023-04-30T13:23:21.113Z,23.30
2023-04-30T13:25:47.880Z,23.20
2023-04-30T13:28:14.999Z,23.40
2023-04-30T13:30:41.740Z,23.50
2023-04-30T13:33:09.017Z,23.70
2023-04-30T13:35:35.843Z,23.60
2023-04-30T13:38:02.588Z,23.80
2023-04-30T13:40:29.436Z,24.00
2023-04-30T13:42:56.196Z,24.00
2023-04-30T13:45:23.032Z,24.00
2023-04-30T13:47:49.837Z,24.10
2023-04-30T13:50:16.805Z,24.10
2023-04-30T13:52:43.599Z,24.20
2023-04-30T13:55:10.404Z,24.10
2023-04-30T13:57:37.754Z,24.00
2023-04-30T14:00:06.277Z,23.80
2023-04-30T14:02:33.246Z,23.80
2023-04-30T14:05:06.214Z,24.00
2023-04-30T14:07:33.886Z,24.20
2023-04-30T14:10:00.801Z,24.50
2023-04-30T14:12:27.665Z,24.50
2023-04-30T14:14:54.481Z,24.60
2023-04-30T14:17:21.362Z,24.90
2023-04-30T14:19:48.165Z,25.10
2023-04-30T14:22:15.035Z,24.90
2023-04-30T14:24:41.760Z,24.90
2023-04-30T14:27:08.522Z,24.90
2023-04-30T14:29:35.329Z,25.00
2023-04-30T14:32:02.238Z,25.20
2023-04-30T14:34:29.106Z,25.20
2023-04-30T14:36:59.377Z,25.10
2023-04-30T14:39:26.800Z,25.10
2023-04-30T14:41:53.946Z,24.80
2023-04-30T14:44:21.501Z,24.70
2023-04-30T14:46:48.276Z,24.70
2023-04-30T14:49:15.115Z,24.60
2023-04-30T14:51:41.931Z,24.60
2023-04-30T14:54:08.762Z,24.50
2023-04-30T14:56:35.911Z,24.70
2023-04-30T14:59:03.207Z,24.60
2023-04-30T15:01:30.597Z,24.70
2023-04-30T15:03:57.522Z,24.70
2023-04-30T15:06:24.452Z,24.80
2023-04-30T15:08:51.263Z,24.90
2023-04-30T15:11:18.141Z,25.00
2023-04-30T15:13:44.894Z,25.00
2023-04-30T15:16:11.664Z,24.80
2023-04-30T15:18:38.927Z,24.70
2023-04-30T15:21:05.843Z,24.80
2023-04-30T15:23:33.648Z,24.70
2023-04-30T15:26:01.482Z,24.50
2023-04-30T15:28:28.310Z,24.60
2023-04-30T15:30:55.158Z,24.60
2023-04-30T15:33:24.550Z,24.40
2023-04-30T15:35:55.409Z,24.40
2023-04-30T15:38:22.204Z,24.40
2023-04-30T15:40:48.990Z,24.40
2023-04-30T15:43:16.471Z,24.50
2023-04-30T15:45:45.830Z,24.30
2023-04-30T15:48:12.670Z,24.50
2023-04-30T15:50:39.469Z,24.60
2023-04-30T15:53:06.313Z,24.50
2023-04-30T15:55:33.158Z,24.50
2023-04-30T15:57:59.944Z,24.60
2023-04-30T16:00:27.231Z,24.80
2023-04-30T16:02:54.651Z,24.80
2023-04-30T16:05:21.530Z,24.90
2023-04-30T16:07:48.582Z,25.20
2023-04-30T16:10:15.384Z,25.30
2023-04-30T16:12:42.356Z,25.20
2023-04-30T16:15:10.050Z,25.20
2023-04-30T16:17:36.906Z,25.00
2023-04-30T16:20:04.179Z,24.90
2023-04-30T16:22:30.916Z,24.60
2023-04-30T16:24:57.674Z,24.40
2023-04-30T16:27:24.453Z,24.60
2023-04-30T16:29:51.193Z,24.30
2023-04-30T16:32:18.303Z,24.10
2023-04-30T16:34:45.248Z,24.00
2023-04-30T16:37:12.047Z,24.00
2023-04-30T16:39:38.826Z,23.90
2023-04-30T16:42:05.803Z,24.10
2023-04-30T16:44:32.579Z,24.30
2023-04-30T16:46:59.922Z,24.20
2023-04-30T16:49:26.776Z,24.10
2023-04-30T16:51:53.593Z,24.10
2023-04-30T16:54:20.327Z,24.10
2023-04-30T16:56:47.111Z,24.10
2023-04-30T16:59:13.838Z,24.20
2023-04-30T17:01:40.654Z,24.00
2023-04-30T17:04:07.471Z,24.00
2023-04-30T17:06:35.515Z,23.70
2023-04-30T17:09:02.497Z,23.50
2023-04-30T17:11:29.353Z,23.60
2023-04-30T17:13:56.898Z,23.50
2023-04-30T17:16:23.789Z,23.40
2023-04-30T17:18:50.581Z,23.30
2023-04-30T17:21:17.311Z,23.30
2023-04-30T17:23:44.181Z,23.20
2023-04-30T17:26:11.444Z,23.30
2023-04-30T17:28:38.396Z,23.40
2023-04-30T17:31:07.477Z,23.20
2023-04-30T17:33:34.385Z,23.30
2023-04-30T17:36:01.412Z,23.20
2023-04-30T17:38:28.283Z,23.00
2023-04-30T17:40:56.718Z,23.00
2023-04-30T17:43:24.095Z,22.90
2023-04-30T17:45:54.391Z,22.90
2023-04-30T17:48:21.344Z,22.80
2023-04-30T17:50:49.943Z,22.90
2023-04-30T17:53:16.813Z,22.80
2023-04-30T17:55:43.645Z,22.80
2023-04-30T17:58:11.506Z,22.70
2023-04-30T18:00:39.430Z,22.60
2023-04-30T18:03:06.708Z,22.60
2023-04-30T18:05:35.576Z,22.50
2023-04-30T18:08:02.928Z,22.50
2023-04-30T18:10:29.773Z,22.30
2023-04-30T18:12:58.303Z,22.20
2023-04-30T18:15:25.783Z,22.20
2023-04-30T18:17:52.940Z,22.10
2023-04-30T18:20:20.810Z,22.10
2023-04-30T18:22:47.560Z,21.90
2023-04-30T18:25:17.051Z,21.80
2023-04-30T18:27:43.934Z,21.80
2023-04-30T18:30:12.557Z,21.60
2023-04-30T18:32:39.694Z,21.50
2023-04-30T18:35:06.752Z,21.60
2023-04-30T18:37:33.874Z,21.60
2023-04-30T18:40:00.635Z,21.60
2023-04-30T18:42:27.534Z,21.60
2023-04-30T18:44:55.311Z,21.50
2023-04-30T18:47:22.085Z,21.30
2023-04-30T18:49:48.987Z,21.30
2023-04-30T18:52:15.733Z,21.20
2023-04-30T18:54:42.596Z,21.10
2023-04-30T18:57:12.442Z,21.10
2023-04-30T18:59:39.683Z,20.90
2023-04-30T19:02:06.560Z,20.90
2023-04-30T19:04:33.572Z,20.90
2023-04-30T19:07:00.386Z,20.90
2023-04-30T19:09:27.224Z,21.00
2023-04-30T19:11:54.231Z,20.90
2023-04-30T19:14:21.055Z,20.60
2023-04-30T19:16:48.000Z,20.60
2023-04-30T19:19:14.805Z,20.50
2023-04-30T19:21:41.636Z,20.40
2023-04-30T19:24:08.398Z,20.30
2023-04-30T19:26:37.221Z,20.10
2023-04-30T19:29:04.049Z,20.10
2023-04-30T19:31:30.997Z,19.90
2023-04-30T19:33:59.826Z,19.80
2023-04-30T19:36:26.914Z,19.70
2023-04-30T19:38:53.719Z,19.80
2023-04-30T19:41:21.311Z,19.70
2023-04-30T19:43:48.222Z,19.60
2023-04-30T19:46:16.011Z,19.70
2023-04-30T19:48:44.585Z,19.90
2023-04-30T19:51:11.504Z,19.80
2023-04-30T19:53:38.359Z,19.90
2023-04-30T19:56:05.114Z,19.70
2023-04-30T19:58:31.842Z,19.50
2023-04-30T20:01:00.200Z,19.30
2023-04-30T20:03:27.154Z,19.10
2023-04-30T20:05:54.249Z,19.10
2023-04-30T20:08:22.041Z,19.00
2023-04-30T20:10:50.076Z,18.90
2023-04-30T20:13:17.335Z,18.90
2023-04-30T20:15:44.197Z,18.70
2023-04-30T20:18:11.427Z,18.50
2023-04-30T20:20:38.390Z,18.50
2023-04-30T20:23:15.674Z,18.40
2023-04-30T20:25:45.033Z,18.20
2023-04-30T20:28:13.046Z,18.20
2023-04-30T20:30:42.652Z,18.20
2023-04-30T20:33:13.419Z,18.10
2023-04-30T20:35:41.561Z,18.10
2023-04-30T20:38:08.588Z,18.00
2023-04-30T20:40:35.460Z,18.00
2023-04-30T20:43:02.239Z,17.90
2023-04-30T20:45:29.142Z,17.80
2023-04-30T20:47:56.075Z,17.80
2023-04-30T20:50:22.877Z,17.70
2023-04-30T20:52:49.647Z,17.70
2023-04-30T20:55:16.479Z,17.60
2023-04-30T20:57:43.297Z,17.60
2023-04-30T21:00:10.622Z,17.50
2023-04-30T21:02:37.798Z,17.40
2023-04-30T21:05:06.134Z,17.40
2023-04-30T21:07:36.804Z,17.40
2023-04-30T21:10:08.434Z,17.40
2023-04-30T21:12:35.479Z,17.30
2023-04-30T21:15:02.385Z,17.30
2023-04-30T21:17:29.250Z,17.30
2023-04-30T21:19:57.152Z,17.40
2023-04-30T21:22:24.645Z,17.30
2023-04-30T21:24:53.588Z,17.30
2023-04-30T21:27:21.388Z,17.40
2023-04-30T21:29:48.527Z,17.30
2023-04-30T21:32:15.368Z,17.20
2023-04-30T21:34:42.225Z,17.10
2023-04-30T21:37:08.987Z,17.10
2023-04-30T21:39:35.709Z,17.00
2023-04-30T21:42:04.523Z,16.90
2023-04-30T21:44:32.824Z,16.80
2023-04-30T21:47:00.277Z,16.70
2023-04-30T21:49:27.585Z,16.60
2023-04-30T21:51:54.454Z,16.60
2023-04-30T21:54:21.244Z,16.60
2023-04-30T21:56:48.078Z,16.60
2023-04-30T21:59:14.875Z,16.70
2023-04-30T22:01:41.662Z,16.60
2023-04-30T22:04:08.771Z,16.70
2023-04-30T22:06:35.958Z,16.70
2023-04-30T22:09:03.924Z,16.60
2023-04-30T22:11:30.738Z,16.60
2023-04-30T22:13:58.950Z,16.50
2023-04-30T22:16:25.736Z,16.60
2023-04-30T22:18:52.625Z,16.60
2023-04-30T22:21:19.412Z,16.60
2023-04-30T22:23:46.411Z,16.60
2023-04-30T22:26:13.177Z,16.40
2023-04-30T22:28:39.899Z,16.30
2023-04-30T22:31:06.709Z,16.20
2023-04-30T22:33:37.671Z,16.10
2023-04-30T22:36:07.830Z,16.10
2023-04-30T22:38:35.333Z,16.10
2023-04-30T22:41:03.794Z,16.00
2023-04-30T22:43:31.048Z,16.00
2023-04-30T22:45:58.704Z,16.00
2023-04-30T22:48:26.902Z,15.90
2023-04-30T22:50:54.089Z,16.00
2023-04-30T22:53:21.074Z,15.90
2023-04-30T22:55:48.032Z,15.90
2023-04-30T22:58:14.931Z,15.90
2023-04-30T23:00:41.823Z,15.80
2023-04-30T23:03:08.751Z,15.80
2023-04-30T23:05:35.652Z,15.80
2023-04-30T23:08:02.447Z,15.70
2023-04-30T23:10:29.251Z,15.70
2023-04-30T23:12:56.692Z,15.60
2023-04-30T23:15:23.506Z,15.70
2023-04-30T23:17:51.521Z,15.60
2023-04-30T23:20:18.820Z,15.60
2023-04-30T23:22:45.681Z,15.60
2023-04-30T23:25:12.596Z,15.60
2023-04-30T23:27:39.479Z,15.60
2023-04-30T23:30:07.006Z,15.60
2023-04-30T23:32:33.853Z,15.60
2023-04-30T23:35:00.639Z,15.50
2023-04-30T23:37:27.765Z,15.50
2023-04-30T23:39:54.856Z,15.50
2023-04-30T23:42:21.884Z,15.50
2023-04-30T23:44:48.615Z,15.50
2023-04-30T23:47:15.709Z,15.40
2023-04-30T23:49:44.690Z,15.40
2023-04-30T23:52:14.365Z,15.40
2023-04-30T23:54:41.207Z,15.40
2023-04-30T23:57:08.038Z,15.40
2023-04-30T23:59:34.796Z,15.30
